createdAt,value
2023-11-17T00:01:58.957Z,99356.79
2023-11-17T00:04:26.754Z,99357.34
2023-11-17T00:06:54.350Z,99359.37
2023-11-17T00:09:21.923Z,99362.75
2023-11-17T00:11:49.351Z,99359.67
2023-11-17T00:14:16.807Z,99359.70
2023-11-17T00:16:44.359Z,99360.08
2023-11-17T00:19:12.449Z,99358.06
2023-11-17T00:21:40.022Z,99360.50
2023-11-17T00:24:10.365Z,99362.42
2023-11-17T00:26:37.886Z,99366.30
2023-11-17T00:29:07.995Z,99369.85
2023-11-17T00:31:35.565Z,99373.14
2023-11-17T00:34:03.162Z,99378.88
2023-11-17T00:36:30.793Z,99387.22
2023-11-17T00:38:58.363Z,99390.95
2023-11-17T00:41:30.717Z,99392.70
2023-11-17T00:43:59.092Z,99394.49
2023-11-17T00:46:27.086Z,99399.45
2023-11-17T00:48:54.784Z,99406.11
2023-11-17T00:51:23.101Z,99408.94
2023-11-17T00:53:50.616Z,99412.08
2023-11-17T00:56:19.515Z,99415.22
2023-11-17T00:58:47.248Z,99415.04
2023-11-17T01:01:15.030Z,99411.56
2023-11-17T01:03:43.456Z,99408.62
2023-11-17T01:06:11.120Z,99402.93
2023-11-17T01:08:38.637Z,99397.67
2023-11-17T01:11:06.956Z,99397.15
2023-11-17T01:13:34.506Z,99399.14
2023-11-17T01:16:02.138Z,99397.92
2023-11-17T01:18:29.644Z,99397.17
2023-11-17T01:20:57.338Z,99391.91
2023-11-17T01:23:26.392Z,99388.33
2023-11-17T01:25:53.914Z,99389.34
2023-11-17T01:28:21.422Z,99386.23
2023-11-17T01:30:49.191Z,99379.00
2023-11-17T01:33:16.734Z,99371.90
2023-11-17T01:35:45.120Z,99367.77
2023-11-17T01:38:12.739Z,99364.84
2023-11-17T01:40:40.618Z,99365.89
2023-11-17T01:43:11.518Z,99362.14
2023-11-17T01:45:40.965Z,99358.32
2023-11-17T01:48:08.829Z,99354.11
2023-11-17T01:50:36.828Z,99346.02
2023-11-17T01:53:04.955Z,99344.64
2023-11-17T01:55:32.445Z,99346.73
2023-11-17T01:58:00.089Z,99345.89
2023-11-17T02:00:27.720Z,99340.64
2023-11-17T02:02:55.360Z,99342.59
2023-11-17T02:05:25.550Z,99348.42
2023-11-17T02:08:27.963Z,99356.17
2023-11-17T02:11:13.206Z,99357.30
2023-11-17T02:13:44.915Z,99356.39
2023-11-17T02:16:13.167Z,99352.87
2023-11-17T02:18:42.251Z,99349.66
2023-11-17T02:21:09.727Z,99349.77
2023-11-17T02:23:38.303Z,99349.55
2023-11-17T02:26:29.664Z,99353.15
2023-11-17T02:29:28.942Z,99349.35
2023-11-17T02:32:00.211Z,99346.23
2023-11-17T02:34:28.250Z,99348.77
2023-11-17T02:36:55.810Z,99342.79
2023-11-17T02:39:26.771Z,99342.59
2023-11-17T02:41:59.100Z,99341.00
2023-11-17T02:44:30.928Z,99340.60
2023-11-17T02:47:04.433Z,99328.63
2023-11-17T02:49:47.859Z,99330.63
2023-11-17T02:52:27.676Z,99328.63
2023-11-17T02:54:56.918Z,99326.36
2023-11-17T02:57:25.677Z,99330.10
2023-11-17T02:59:53.260Z,99333.03
2023-11-17T03:02:22.996Z,99333.59
2023-11-17T03:04:55.604Z,99333.10
2023-11-17T03:07:23.514Z,99335.77
2023-11-17T03:09:53.786Z,99341.78
2023-11-17T03:12:21.691Z,99345.73
2023-11-17T03:14:49.488Z,99345.31
2023-11-17T03:17:17.004Z,99343.06
2023-11-17T03:19:44.530Z,99346.67
2023-11-17T03:22:15.305Z,99341.55
2023-11-17T03:24:43.099Z,99344.42
2023-11-17T03:27:12.706Z,99345.23
2023-11-17T03:29:40.389Z,99338.10
2023-11-17T03:32:09.040Z,99342.44
2023-11-17T03:34:36.655Z,99336.55
2023-11-17T03:37:05.174Z,99335.20
2023-11-17T03:39:43.566Z,99339.14
2023-11-17T03:42:12.406Z,99341.52
2023-11-17T03:44:39.928Z,99341.26
2023-11-17T03:47:08.377Z,99342.95
2023-11-17T03:49:36.269Z,99342.54
2023-11-17T03:52:04.553Z,99340.56
2023-11-17T03:54:34.098Z,99341.91
2023-11-17T03:57:03.090Z,99342.58
2023-11-17T03:59:31.658Z,99337.78
2023-11-17T04:02:00.268Z,99332.75
2023-11-17T04:04:28.426Z,99325.10
2023-11-17T04:06:59.022Z,99321.52
2023-11-17T04:09:26.958Z,99324.04
2023-11-17T04:11:55.009Z,99324.43
2023-11-17T04:14:23.531Z,99324.23
2023-11-17T04:16:51.724Z,99331.70
2023-11-17T04:19:21.296Z,99334.84
2023-11-17T04:21:51.265Z,99333.67
2023-11-17T04:24:19.887Z,99331.86
2023-11-17T04:26:47.889Z,99331.20
2023-11-17T04:29:15.973Z,99334.06
2023-11-17T04:31:43.639Z,99331.71
2023-11-17T04:34:14.365Z,99332.95
2023-11-17T04:36:42.069Z,99332.17
2023-11-17T04:39:18.482Z,99328.96
2023-11-17T04:41:46.710Z,99330.44
2023-11-17T04:44:14.449Z,99334.52
2023-11-17T04:46:41.968Z,99330.06
2023-11-17T04:49:09.612Z,99325.44
2023-11-17T04:51:37.210Z,99324.59
2023-11-17T04:54:04.784Z,99329.73
2023-11-17T04:56:32.601Z,99326.95
2023-11-17T04:59:00.112Z,99330.06
2023-11-17T05:01:27.704Z,99332.23
2023-11-17T05:03:55.378Z,99333.93
2023-11-17T05:06:24.603Z,99337.58
2023-11-17T05:08:53.043Z,99345.53
2023-11-17T05:11:22.771Z,99346.41
2023-11-17T05:13:50.347Z,99348.17
2023-11-17T05:16:17.952Z,99352.15
2023-11-17T05:18:45.545Z,99355.50
2023-11-17T05:21:14.737Z,99352.43
2023-11-17T05:23:42.889Z,99347.85
2023-11-17T05:26:10.695Z,99355.84
2023-11-17T05:28:38.449Z,99355.73
2023-11-17T05:31:06.419Z,99361.46
2023-11-17T05:33:34.756Z,99372.70
2023-11-17T05:36:03.250Z,99387.62
2023-11-17T05:38:30.679Z,99397.59
2023-11-17T05:40:58.396Z,99400.23
2023-11-17T05:43:25.849Z,99405.38
2023-11-17T05:45:55.253Z,99408.48
2023-11-17T05:48:22.865Z,99413.28
2023-11-17T05:50:50.241Z,99420.45
2023-11-17T05:53:17.707Z,99419.92
2023-11-17T05:55:45.932Z,99417.63
2023-11-17T05:58:13.489Z,99424.60
2023-11-17T06:00:41.124Z,99426.70
2023-11-17T06:03:08.677Z,99421.86
2023-11-17T06:05:36.894Z,99417.38
2023-11-17T06:08:05.150Z,99415.27
2023-11-17T06:10:32.883Z,99416.23
2023-11-17T06:13:00.539Z,99413.28
2023-11-17T06:15:28.961Z,99412.90
2023-11-17T06:17:57.712Z,99410.98
2023-11-17T06:20:27.110Z,99410.30
2023-11-17T06:22:54.610Z,99411.33
2023-11-17T06:25:22.168Z,99415.04
2023-11-17T06:27:51.186Z,99411.92
2023-11-17T06:30:19.174Z,99412.31
2023-11-17T06:32:46.814Z,99416.83
2023-11-17T06:35:16.162Z,99419.52
2023-11-17T06:37:43.675Z,99421.28
2023-11-17T06:40:12.153Z,99415.59
2023-11-17T06:42:42.526Z,99417.12
2023-11-17T06:45:13.325Z,99420.84
2023-11-17T06:47:44.893Z,99422.59
2023-11-17T06:50:13.252Z,99425.92
2023-11-17T06:52:41.873Z,99419.52
2023-11-17T06:55:10.816Z,99416.11
2023-11-17T06:57:38.830Z,99417.38
2023-11-17T07:00:11.512Z,99412.80
2023-11-17T07:02:41.912Z,99413.19
2023-11-17T07:05:12.209Z,99412.59
2023-11-17T07:07:41.107Z,99417.33
2023-11-17T07:10:16.235Z,99423.86
2023-11-17T07:12:44.224Z,99427.73
2023-11-17T07:15:15.032Z,99432.71
2023-11-17T07:17:43.825Z,99435.36
2023-11-17T07:20:12.798Z,99435.14
2023-11-17T07:22:41.039Z,99438.50
2023-11-17T07:25:12.431Z,99442.02
2023-11-17T07:27:40.917Z,99449.66
2023-11-17T07:30:15.289Z,99451.85
2023-11-17T07:32:44.871Z,99454.54
2023-11-17T07:35:13.909Z,99460.66
2023-11-17T07:37:41.484Z,99466.95
2023-11-17T07:40:11.273Z,99468.04
2023-11-17T07:42:41.176Z,99473.55
2023-11-17T07:45:12.460Z,99479.94
2023-11-17T07:47:43.198Z,99477.59
2023-11-17T07:50:15.636Z,99478.30
2023-11-17T07:52:44.897Z,99478.83
2023-11-17T07:55:15.929Z,99474.38
2023-11-17T07:57:43.725Z,99479.46
2023-11-17T08:00:32.568Z,99485.29
2023-11-17T08:03:00.779Z,99493.15
2023-11-17T08:05:30.948Z,99489.20
2023-11-17T08:07:58.949Z,99498.16
2023-11-17T08:10:29.667Z,99500.86
2023-11-17T08:12:57.242Z,99500.34
2023-11-17T08:15:25.091Z,99502.85
2023-11-17T08:17:52.628Z,99503.95
2023-11-17T08:20:22.681Z,99504.36
2023-11-17T08:22:50.212Z,99498.02
2023-11-17T08:25:17.775Z,99496.71
2023-11-17T08:27:45.344Z,99499.26
2023-11-17T08:30:13.728Z,99499.05
2023-11-17T08:32:41.251Z,99497.66
2023-11-17T08:35:10.420Z,99495.35
2023-11-17T08:37:38.821Z,99496.52
2023-11-17T08:40:09.930Z,99496.81
2023-11-17T08:42:38.733Z,99495.58
2023-11-17T08:45:10.156Z,99495.25
2023-11-17T08:47:38.184Z,99492.34
2023-11-17T08:50:09.896Z,99486.58
2023-11-17T08:52:42.218Z,99486.86
2023-11-17T08:55:11.439Z,99487.61
2023-11-17T08:57:39.206Z,99486.98
2023-11-17T09:00:19.762Z,99484.34
2023-11-17T09:02:47.632Z,99479.09
2023-11-17T09:05:15.193Z,99477.92
2023-11-17T09:07:44.156Z,99476.60
2023-11-17T09:10:15.680Z,99465.40
2023-11-17T09:12:48.765Z,99474.28
2023-11-17T09:15:18.301Z,99477.30
2023-11-17T09:17:49.029Z,99476.15
2023-11-17T09:20:19.174Z,99475.27
2023-11-17T09:22:47.268Z,99481.25
2023-11-17T09:25:15.467Z,99483.64
2023-11-17T09:27:52.939Z,99487.42
2023-11-17T09:30:20.431Z,99489.13
2023-11-17T09:32:56.462Z,99489.71
2023-11-17T09:35:27.429Z,99491.27
2023-11-17T09:38:02.674Z,99488.74
2023-11-17T09:40:31.899Z,99489.09
2023-11-17T09:43:24.782Z,99483.02
2023-11-17T09:45:52.927Z,99483.48
2023-11-17T09:48:20.580Z,99482.44
2023-11-17T09:50:52.631Z,99480.35
2023-11-17T09:53:20.792Z,99472.77
2023-11-17T09:55:49.659Z,99456.73
2023-11-17T09:58:17.351Z,99468.27
2023-11-17T10:00:47.212Z,99464.56
2023-11-17T10:03:15.483Z,99466.34
2023-11-17T10:05:43.794Z,99469.43
2023-11-17T10:08:15.927Z,99474.33
2023-11-17T10:10:45.817Z,99473.52
2023-11-17T10:13:13.895Z,99474.84
2023-11-17T10:15:45.498Z,99469.48
2023-11-17T10:18:26.091Z,99471.63
2023-11-17T10:20:55.329Z,99469.98
2023-11-17T10:23:22.959Z,99469.89
2023-11-17T10:25:57.436Z,99469.63
2023-11-17T10:28:26.674Z,99462.52
2023-11-17T10:30:57.810Z,99465.09
2023-11-17T10:33:32.258Z,99457.77
2023-11-17T10:36:04.384Z,99458.45
2023-11-17T10:38:36.670Z,99466.83
2023-11-17T10:41:44.046Z,99468.88
2023-11-17T10:44:15.387Z,99469.27
2023-11-17T10:46:46.138Z,99467.73
2023-11-17T10:49:16.913Z,99467.48
2023-11-17T10:51:48.063Z,99465.64
2023-11-17T10:54:15.865Z,99460.98
2023-11-17T10:56:51.576Z,99461.94
2023-11-17T10:59:22.129Z,99462.33
2023-11-17T11:01:51.489Z,99461.48
2023-11-17T11:04:27.515Z,99464.48
2023-11-17T11:06:56.498Z,99462.59
2023-11-17T11:09:37.195Z,99464.23
2023-11-17T11:12:13.071Z,99466.23
2023-11-17T11:14:42.247Z,99464.84
2023-11-17T11:17:11.558Z,99464.39
2023-11-17T11:19:52.768Z,99462.21
2023-11-17T11:22:30.240Z,99455.33
2023-11-17T11:24:58.264Z,99450.46
2023-11-17T11:27:25.831Z,99452.54
2023-11-17T11:29:54.268Z,99458.44
2023-11-17T11:32:22.060Z,99460.15
2023-11-17T11:34:51.175Z,99451.96
2023-11-17T11:37:20.304Z,99446.41
2023-11-17T11:39:47.936Z,99445.27
2023-11-17T11:42:15.631Z,99444.55
2023-11-17T11:44:43.382Z,99442.50
2023-11-17T11:50:08.178Z,99436.50
2023-11-17T11:53:19.676Z,99439.22
2023-11-17T12:00:14.660Z,99425.09
2023-11-17T12:02:56.189Z,99421.57
2023-11-17T12:05:24.660Z,99416.65
2023-11-17T12:07:53.469Z,99413.66
2023-11-17T12:10:21.192Z,99416.33
2023-11-17T12:12:56.605Z,99414.91
2023-11-17T12:15:24.139Z,99415.73
2023-11-17T12:17:59.474Z,99415.84
2023-11-17T12:20:28.913Z,99411.25
2023-11-17T12:23:00.795Z,99406.89
2023-11-17T12:25:32.028Z,99407.66
2023-11-17T12:28:00.262Z,99407.95
2023-11-17T12:30:28.518Z,99411.71
2023-11-17T12:32:58.634Z,99416.27
2023-11-17T12:35:31.523Z,99417.09
2023-11-17T12:37:59.236Z,99415.79
2023-11-17T12:40:29.816Z,99417.15
2023-11-17T12:42:59.261Z,99418.01
2023-11-17T12:45:29.749Z,99419.75
2023-11-17T12:48:01.811Z,99422.63
2023-11-17T12:50:42.209Z,99421.22
2023-11-17T12:53:11.407Z,99420.06
2023-11-17T12:55:47.428Z,99415.95
2023-11-17T12:58:15.252Z,99414.27
2023-11-17T13:00:43.068Z,99415.70
2023-11-17T13:03:10.647Z,99411.23
2023-11-17T13:05:38.351Z,99410.17
2023-11-17T13:08:05.876Z,99408.27
2023-11-17T13:10:33.843Z,99408.84
2023-11-17T13:13:07.362Z,99409.09
2023-11-17T13:15:35.054Z,99404.67
2023-11-17T13:18:02.692Z,99401.49
2023-11-17T13:20:31.872Z,99400.21
2023-11-17T13:22:59.544Z,99394.83
2023-11-17T13:25:27.697Z,99394.80
2023-11-17T13:27:55.633Z,99396.45
2023-11-17T13:30:23.429Z,99401.60
2023-11-17T13:32:52.593Z,99412.23
2023-11-17T13:35:21.158Z,99413.05
2023-11-17T13:37:49.560Z,99411.90
2023-11-17T13:40:35.526Z,99419.04
2023-11-17T13:43:11.440Z,99421.23
2023-11-17T13:45:41.198Z,99417.40
2023-11-17T13:48:13.457Z,99419.95
2023-11-17T13:50:53.892Z,99421.89
2023-11-17T13:53:25.412Z,99414.04
2023-11-17T13:55:57.118Z,99413.18
2023-11-17T13:58:26.247Z,99413.02
2023-11-17T14:00:54.528Z,99414.27
2023-11-17T14:03:22.132Z,99415.50
2023-11-17T14:05:50.424Z,99414.75
2023-11-17T14:08:18.442Z,99415.10
2023-11-17T14:10:46.586Z,99410.27
2023-11-17T14:13:16.952Z,99412.02
2023-11-17T14:15:51.845Z,99410.64
2023-11-17T14:18:24.345Z,99410.66
2023-11-17T14:20:51.908Z,99410.98
2023-11-17T14:23:19.508Z,99415.75
2023-11-17T14:25:47.058Z,99424.74
2023-11-17T14:28:18.462Z,99427.17
2023-11-17T14:30:46.743Z,99429.80
2023-11-17T14:33:15.846Z,99434.42
2023-11-17T14:35:43.649Z,99436.16
2023-11-17T14:38:11.169Z,99440.64
2023-11-17T14:40:38.705Z,99439.56
2023-11-17T14:43:06.417Z,99438.65
2023-11-17T14:45:34.231Z,99439.38
2023-11-17T14:48:02.017Z,99442.52
2023-11-17T14:50:30.951Z,99441.65
2023-11-17T14:52:59.707Z,99441.52
2023-11-17T14:55:28.963Z,99441.95
2023-11-17T14:57:56.638Z,99440.61
2023-11-17T15:00:25.470Z,99443.86
2023-11-17T15:02:55.807Z,99448.22
2023-11-17T15:05:23.518Z,99445.38
2023-11-17T15:07:51.343Z,99444.45
2023-11-17T15:10:21.960Z,99448.42
2023-11-17T15:12:50.545Z,99449.34
2023-11-17T15:15:30.178Z,99448.52
2023-11-17T15:17:59.630Z,99447.80
2023-11-17T15:20:34.424Z,99446.39
2023-11-17T15:23:06.490Z,99442.91
2023-11-17T15:25:38.111Z,99442.41
2023-11-17T15:28:18.504Z,99447.98
2023-11-17T15:30:55.971Z,99447.20
2023-11-17T15:33:24.124Z,99446.43
2023-11-17T15:35:51.767Z,99440.66
2023-11-17T15:38:23.760Z,99438.15
2023-11-17T15:40:51.478Z,99445.27
2023-11-17T15:43:19.699Z,99449.02
2023-11-17T15:45:47.881Z,99447.67
2023-11-17T15:48:16.003Z,99450.11
2023-11-17T15:50:43.614Z,99452.16
2023-11-17T15:53:11.139Z,99453.36
2023-11-17T15:55:38.920Z,99454.52
2023-11-17T15:58:06.927Z,99461.39
2023-11-17T16:00:37.108Z,99461.29
2023-11-17T16:03:04.791Z,99463.48
2023-11-17T16:05:35.032Z,99463.55
2023-11-17T16:08:02.709Z,99464.32
2023-11-17T16:10:30.250Z,99461.96
2023-11-17T16:13:00.871Z,99462.27
2023-11-17T16:15:30.103Z,99462.05
2023-11-17T16:17:57.847Z,99465.02
2023-11-17T16:20:32.554Z,99463.88
2023-11-17T16:23:01.715Z,99468.04
2023-11-17T16:25:33.899Z,99471.10
2023-11-17T16:28:04.372Z,99475.93
2023-11-17T16:30:33.040Z,99471.73
2023-11-17T16:33:00.577Z,99472.48
2023-11-17T16:35:28.893Z,99465.77
2023-11-17T16:37:57.013Z,99464.09
2023-11-17T16:40:25.560Z,99462.73
2023-11-17T16:43:13.581Z,99461.27
2023-11-17T16:45:41.287Z,99468.34
2023-11-17T16:48:09.076Z,99465.10
2023-11-17T16:50:41.469Z,99463.59
2023-11-17T16:53:12.430Z,99467.92
2023-11-17T16:55:40.113Z,99466.66
2023-11-17T16:58:07.994Z,99464.52
2023-11-17T17:00:38.003Z,99465.11
2023-11-17T17:03:07.315Z,99462.87
2023-11-17T17:05:40.958Z,99463.23
2023-11-17T17:08:11.420Z,99459.52
2023-11-17T17:10:39.187Z,99458.98
2023-11-17T17:13:07.085Z,99457.88
2023-11-17T17:15:36.341Z,99460.38
2023-11-17T17:18:08.211Z,99459.14
2023-11-17T17:20:46.414Z,99459.55
2023-11-17T17:23:14.121Z,99461.26
2023-11-17T17:25:42.348Z,99460.59
2023-11-17T17:28:14.037Z,99460.82
2023-11-17T17:30:42.965Z,99463.74
2023-11-17T17:33:11.792Z,99469.05
2023-11-17T17:35:43.785Z,99468.61
2023-11-17T17:38:14.843Z,99466.59
2023-11-17T17:40:43.818Z,99469.85
2023-11-17T17:43:13.469Z,99467.00
2023-11-17T17:45:45.263Z,99466.57
2023-11-17T17:48:14.509Z,99460.25
2023-11-17T17:50:42.448Z,99465.33
2023-11-17T17:53:10.002Z,99460.50
2023-11-17T17:55:38.178Z,99455.73
2023-11-17T17:58:08.265Z,99451.12
2023-11-17T18:00:36.204Z,99452.58
2023-11-17T18:03:06.649Z,99452.17
2023-11-17T18:05:34.640Z,99449.50
2023-11-17T18:08:02.213Z,99449.04
2023-11-17T18:10:30.799Z,99448.16
2023-11-17T18:12:58.549Z,99451.38
2023-11-17T18:15:27.462Z,99450.85
2023-11-17T18:17:57.621Z,99451.59
2023-11-17T18:20:26.230Z,99455.00
2023-11-17T18:22:55.397Z,99460.69
2023-11-17T18:25:23.832Z,99459.46
2023-11-17T18:27:53.648Z,99458.18
2023-11-17T18:30:25.049Z,99462.26
2023-11-17T18:32:53.817Z,99464.06
2023-11-17T18:35:25.048Z,99458.49
2023-11-17T18:37:53.606Z,99452.21
2023-11-17T18:40:26.630Z,99449.94
2023-11-17T18:43:00.071Z,99449.56
2023-11-17T18:45:29.754Z,99446.27
2023-11-17T18:48:00.371Z,99448.35
2023-11-17T18:50:46.099Z,99452.09
2023-11-17T18:53:15.350Z,99455.00
2023-11-17T18:55:46.249Z,99452.67
2023-11-17T18:58:14.760Z,99453.85
2023-11-17T19:00:42.314Z,99457.42
2023-11-17T19:03:09.951Z,99459.48
2023-11-17T19:05:37.816Z,99464.09
2023-11-17T19:08:05.718Z,99469.11
2023-11-17T19:10:33.233Z,99465.80
2023-11-17T19:13:02.108Z,99467.85
2023-11-17T19:15:30.243Z,99469.73
2023-11-17T19:17:59.442Z,99469.34
2023-11-17T19:20:28.165Z,99473.84
2023-11-17T19:22:55.889Z,99476.52
2023-11-17T19:25:23.605Z,99476.74
2023-11-17T19:27:51.377Z,99475.42
2023-11-17T19:30:19.668Z,99472.48
2023-11-17T19:32:48.589Z,99473.23
2023-11-17T19:35:20.196Z,99474.02
2023-11-17T19:37:48.456Z,99474.14
2023-11-17T19:40:16.563Z,99475.03
2023-11-17T19:42:45.269Z,99473.73
2023-11-17T19:45:17.773Z,99475.44
2023-11-17T19:47:46.018Z,99474.79
2023-11-17T19:50:16.042Z,99478.80
2023-11-17T19:52:45.040Z,99475.73
2023-11-17T19:55:12.763Z,99476.54
2023-11-17T19:57:43.695Z,99479.72
2023-11-17T20:00:13.494Z,99477.55
2023-11-17T20:02:42.837Z,99480.14
2023-11-17T20:05:11.687Z,99478.02
2023-11-17T20:07:39.527Z,99476.27
2023-11-17T20:10:15.450Z,99475.79
2023-11-17T20:12:43.152Z,99476.98
2023-11-17T20:15:15.529Z,99472.71
2023-11-17T20:17:55.081Z,99474.73
2023-11-17T20:20:27.128Z,99476.77
2023-11-17T20:22:57.432Z,99476.13
2023-11-17T20:25:26.312Z,99473.55
2023-11-17T20:27:57.187Z,99474.73
2023-11-17T20:30:26.707Z,99477.42
2023-11-17T20:32:55.885Z,99478.10
2023-11-17T20:35:25.292Z,99482.23
2023-11-17T20:37:54.189Z,99481.04
2023-11-17T20:40:23.043Z,99480.98
2023-11-17T20:42:52.172Z,99480.21
2023-11-17T20:45:21.825Z,99477.49
2023-11-17T20:47:50.022Z,99481.83
2023-11-17T20:50:21.465Z,99481.52
2023-11-17T20:52:52.380Z,99484.52
2023-11-17T20:55:23.930Z,99484.53
2023-11-17T20:57:52.576Z,99486.44
2023-11-17T21:00:24.320Z,99482.09
2023-11-17T21:02:53.822Z,99489.82
2023-11-17T21:05:22.385Z,99490.88
2023-11-17T21:07:52.262Z,99491.67
2023-11-17T21:10:23.498Z,99491.97
2023-11-17T21:12:53.398Z,99491.79
2023-11-17T21:15:22.808Z,99492.34
2023-11-17T21:17:54.033Z,99494.96
2023-11-17T21:20:22.126Z,99486.49
2023-11-17T21:22:50.409Z,99498.02
2023-11-17T21:25:20.039Z,99502.02
2023-11-17T21:27:49.904Z,99506.61
2023-11-17T21:30:19.101Z,99507.61
2023-11-17T21:32:51.187Z,99505.94
2023-11-17T21:35:19.808Z,99508.72
2023-11-17T21:37:57.638Z,99509.67
2023-11-17T21:40:26.303Z,99510.75
2023-11-17T21:42:54.073Z,99509.80
2023-11-17T21:45:23.589Z,99510.17
2023-11-17T21:47:54.199Z,99510.34
2023-11-17T21:50:23.469Z,99512.77
2023-11-17T21:52:57.507Z,99510.95
2023-11-17T21:55:26.034Z,99509.86
2023-11-17T21:57:56.535Z,99508.65
2023-11-17T22:00:27.793Z,99505.95
2023-11-17T22:02:56.251Z,99504.95
2023-11-17T22:05:24.131Z,99505.95
2023-11-17T22:07:51.749Z,99506.36
2023-11-17T22:10:19.693Z,99508.09
2023-11-17T22:12:49.345Z,99503.13
2023-11-17T22:15:21.322Z,99501.90
2023-11-17T22:17:49.857Z,99500.48
2023-11-17T22:20:19.491Z,99502.63
2023-11-17T22:22:51.549Z,99503.39
2023-11-17T22:25:22.410Z,99502.98
2023-11-17T22:27:51.253Z,99502.64
2023-11-17T22:30:24.473Z,99506.20
2023-11-17T22:32:54.620Z,99510.90
2023-11-17T22:35:23.639Z,99508.54
2023-11-17T22:37:51.920Z,99506.02
2023-11-17T22:40:24.091Z,99504.91
2023-11-17T22:42:53.434Z,99503.16
2023-11-17T22:45:23.412Z,99502.60
2023-11-17T22:47:53.490Z,99504.02
2023-11-17T22:50:22.797Z,99502.56
2023-11-17T22:52:51.030Z,99504.65
2023-11-17T22:55:21.291Z,99505.67
2023-11-17T22:57:49.859Z,99507.46
2023-11-17T23:00:42.016Z,99504.22
2023-11-17T23:03:10.656Z,99502.63
2023-11-17T23:05:44.784Z,99502.82
2023-11-17T23:08:18.379Z,99499.53
2023-11-17T23:10:46.735Z,99494.95
2023-11-17T23:13:15.425Z,99497.42
2023-11-17T23:15:44.905Z,99498.30
2023-11-17T23:18:14.727Z,99496.17
2023-11-17T23:20:42.930Z,99493.08
2023-11-17T23:23:10.389Z,99495.36
2023-11-17T23:25:39.096Z,99495.45
2023-11-17T23:28:09.844Z,99494.77
2023-11-17T23:30:37.586Z,99496.78
2023-11-17T23:33:09.280Z,99495.80
2023-11-17T23:35:37.372Z,99501.86
2023-11-17T23:38:05.719Z,99502.05
2023-11-17T23:40:33.251Z,99498.16
2023-11-17T23:43:01.817Z,99501.01
2023-11-17T23:45:30.778Z,99502.09
2023-11-17T23:47:58.754Z,99502.61
2023-11-17T23:50:26.580Z,99504.41
2023-11-17T23:52:54.530Z,99505.70
2023-11-17T23:55:22.970Z,99502.80
2023-11-17T23:57:50.697Z,99500.64
